createdAt,value
2023-04-23T00:01:06.471Z,100147.34
2023-04-23T00:03:34.618Z,100143.00
2023-04-23T00:06:05.634Z,100144.66
2023-04-23T00:08:32.911Z,100150.13
2023-04-23T00:11:00.210Z,100143.66
2023-04-23T00:13:27.915Z,100148.16
2023-04-23T00:15:55.014Z,100142.22
2023-04-23T00:18:21.462Z,100140.13
2023-04-23T00:20:48.150Z,100137.34
2023-04-23T00:23:14.580Z,100136.03
2023-04-23T00:25:41.043Z,100140.22
2023-04-23T00:28:07.509Z,100137.00
2023-04-23T00:30:33.924Z,100142.16
2023-04-23T00:33:00.644Z,100130.03
2023-04-23T00:35:27.577Z,100144.91
2023-04-23T00:37:53.938Z,100146.72
2023-04-23T00:40:21.186Z,100148.59
2023-04-23T00:42:48.774Z,100149.19
2023-04-23T00:45:16.036Z,100147.59
2023-04-23T00:47:43.360Z,100158.84
2023-04-23T00:50:10.408Z,100148.59
2023-04-23T00:52:39.080Z,100149.44
2023-04-23T00:55:06.059Z,100159.16
2023-04-23T00:57:33.288Z,100156.75
2023-04-23T01:00:00.319Z,100156.78
2023-04-23T01:02:30.930Z,100163.13
2023-04-23T01:04:59.751Z,100161.31
2023-04-23T01:07:27.083Z,100150.41
2023-04-23T01:09:54.405Z,100150.75
2023-04-23T01:12:22.605Z,100149.03
2023-04-23T01:14:49.167Z,100151.94
2023-04-23T01:17:16.308Z,100150.72
2023-04-23T01:19:42.768Z,100146.19
2023-04-23T01:22:11.711Z,100149.31
2023-04-23T01:24:39.623Z,100144.88
2023-04-23T01:27:07.248Z,100148.31
2023-04-23T01:29:34.780Z,100147.81
2023-04-23T01:32:02.820Z,100153.88
2023-04-23T01:34:30.926Z,100153.38
2023-04-23T01:36:58.979Z,100162.03
2023-04-23T01:39:26.082Z,100140.03
2023-04-23T01:41:53.541Z,100158.41
2023-04-23T01:44:20.018Z,100159.72
2023-04-23T01:46:47.322Z,100163.88
2023-04-23T01:49:14.457Z,100160.84
2023-04-23T01:51:43.106Z,100157.81
2023-04-23T01:54:09.539Z,100162.03
2023-04-23T01:56:36.389Z,100159.72
2023-04-23T01:59:02.904Z,100164.28
2023-04-23T02:01:46.689Z,100164.28
2023-04-23T02:04:14.990Z,100170.03
2023-04-23T02:06:43.739Z,100166.06
2023-04-23T02:09:10.554Z,100166.88
2023-04-23T02:11:37.027Z,100176.88
2023-04-23T02:14:04.393Z,100177.47
2023-04-23T02:16:31.331Z,100172.50
2023-04-23T02:18:57.821Z,100173.31
2023-04-23T02:21:27.616Z,100177.16
2023-04-23T02:23:54.307Z,100177.44
2023-04-23T02:26:22.664Z,100176.75
2023-04-23T02:28:49.347Z,100179.28
2023-04-23T02:31:16.560Z,100181.28
2023-04-23T02:33:43.308Z,100180.19
2023-04-23T02:36:12.455Z,100184.78
2023-04-23T02:38:42.185Z,100184.19
2023-04-23T02:41:08.676Z,100185.34
2023-04-23T02:43:36.040Z,100180.06
2023-04-23T02:46:08.413Z,100178.75
2023-04-23T02:48:38.854Z,100185.22
2023-04-23T02:51:06.475Z,100187.50
2023-04-23T02:53:33.123Z,100178.66
2023-04-23T02:55:59.720Z,100185.22
2023-04-23T02:58:26.812Z,100185.00
2023-04-23T03:00:56.031Z,100194.34
2023-04-23T03:03:26.627Z,100194.44
2023-04-23T03:05:54.090Z,100203.78
2023-04-23T03:08:20.695Z,100192.16
2023-04-23T03:10:48.079Z,100206.38
2023-04-23T03:13:14.801Z,100210.56
2023-04-23T03:15:41.700Z,100206.50
2023-04-23T03:18:08.368Z,100206.38
2023-04-23T03:20:36.074Z,100211.81
2023-04-23T03:23:03.528Z,100214.53
2023-04-23T03:25:30.375Z,100215.56
2023-04-23T03:27:57.101Z,100217.34
2023-04-23T03:30:23.850Z,100218.22
2023-04-23T03:32:50.884Z,100217.34
2023-04-23T03:35:17.725Z,100214.91
2023-04-23T03:37:47.320Z,100213.34
2023-04-23T03:40:14.532Z,100207.47
2023-04-23T03:42:43.100Z,100215.03
2023-04-23T03:45:16.881Z,100224.38
2023-04-23T03:47:44.381Z,100220.56
2023-04-23T03:50:13.150Z,100237.09
2023-04-23T03:52:41.430Z,100229.44
2023-04-23T03:55:14.415Z,100236.25
2023-04-23T03:57:45.030Z,100228.88
2023-04-23T04:00:20.648Z,100236.97
2023-04-23T04:02:47.399Z,100250.41
2023-04-23T04:05:14.012Z,100246.97
2023-04-23T04:07:41.120Z,100249.16
2023-04-23T04:10:08.067Z,100251.47
2023-04-23T04:12:34.542Z,100252.75
2023-04-23T04:15:02.898Z,100246.31
2023-04-23T04:17:29.282Z,100251.63
2023-04-23T04:19:55.679Z,100253.94
2023-04-23T04:22:22.552Z,100249.47
2023-04-23T04:24:52.140Z,100255.88
2023-04-23T04:27:18.674Z,100263.75
2023-04-23T04:29:45.126Z,100256.88
2023-04-23T04:32:11.524Z,100253.38
2023-04-23T04:34:38.529Z,100269.69
2023-04-23T04:37:05.285Z,100266.69
2023-04-23T04:39:31.716Z,100259.59
2023-04-23T04:41:59.829Z,100276.25
2023-04-23T04:44:26.489Z,100272.25
2023-04-23T04:46:53.770Z,100269.84
2023-04-23T04:49:21.787Z,100272.00
2023-04-23T04:51:48.432Z,100269.53
2023-04-23T04:54:14.848Z,100273.63
2023-04-23T04:56:41.259Z,100280.38
2023-04-23T04:59:07.682Z,100283.88
2023-04-23T05:01:34.227Z,100286.84
2023-04-23T05:04:01.004Z,100284.91
2023-04-23T05:06:28.827Z,100286.06
2023-04-23T05:08:55.294Z,100288.25
2023-04-23T05:11:21.782Z,100288.25
2023-04-23T05:13:48.894Z,100293.97
2023-04-23T05:16:15.690Z,100285.78
2023-04-23T05:18:42.286Z,100289.38
2023-04-23T05:21:08.951Z,100281.47
2023-04-23T05:23:36.500Z,100281.75
2023-04-23T05:26:03.601Z,100288.56
2023-04-23T05:28:31.016Z,100287.97
2023-04-23T05:30:58.297Z,100273.03
2023-04-23T05:33:30.570Z,100284.16
2023-04-23T05:35:59.700Z,100278.50
2023-04-23T05:38:26.439Z,100273.00
2023-04-23T05:40:52.941Z,100279.03
2023-04-23T05:43:19.371Z,100292.06
2023-04-23T05:45:46.129Z,100295.31
2023-04-23T05:48:12.696Z,100292.09
2023-04-23T05:50:39.234Z,100295.06
2023-04-23T05:53:05.695Z,100288.25
2023-04-23T05:55:32.115Z,100290.81
2023-04-23T05:57:58.586Z,100290.03
2023-04-23T06:00:25.307Z,100296.59
2023-04-23T06:02:51.934Z,100290.94
2023-04-23T06:05:19.397Z,100288.66
2023-04-23T06:07:46.324Z,100284.31
2023-04-23T06:10:12.873Z,100286.16
2023-04-23T06:12:39.875Z,100286.88
2023-04-23T06:15:10.174Z,100293.59
2023-04-23T06:17:37.314Z,100299.56
2023-04-23T06:20:05.052Z,100288.84
2023-04-23T06:22:32.522Z,100285.66
2023-04-23T06:24:59.329Z,100293.25
2023-04-23T06:27:26.994Z,100286.81
2023-04-23T06:29:56.793Z,100285.84
2023-04-23T06:32:23.473Z,100290.06
2023-04-23T06:35:00.247Z,100290.03
2023-04-23T06:37:29.747Z,100283.59
2023-04-23T06:39:56.779Z,100273.00
2023-04-23T06:42:23.463Z,100268.25
2023-04-23T06:45:07.010Z,100274.06
2023-04-23T06:47:33.496Z,100274.88
2023-04-23T06:50:00.188Z,100283.78
2023-04-23T06:52:27.608Z,100285.75
2023-04-23T06:54:54.108Z,100292.00
2023-04-23T06:57:21.787Z,100292.34
2023-04-23T06:59:48.454Z,100287.81
2023-04-23T07:02:15.970Z,100277.22
2023-04-23T07:04:42.798Z,100284.72
2023-04-23T07:07:09.527Z,100286.44
2023-04-23T07:09:35.966Z,100292.69
2023-04-23T07:12:03.308Z,100285.50
2023-04-23T07:14:29.762Z,100277.75
2023-04-23T07:16:56.373Z,100275.91
2023-04-23T07:19:22.857Z,100269.94
2023-04-23T07:21:49.291Z,100273.41
2023-04-23T07:24:16.604Z,100262.97
2023-04-23T07:26:43.010Z,100265.06
2023-04-23T07:29:11.246Z,100261.25
2023-04-23T07:31:39.433Z,100261.88
2023-04-23T07:34:06.537Z,100254.34
2023-04-23T07:36:33.531Z,100251.13
2023-04-23T07:39:00.012Z,100248.31
2023-04-23T07:41:26.727Z,100253.56
2023-04-23T07:43:53.402Z,100249.84
2023-04-23T07:46:20.095Z,100261.88
2023-04-23T07:48:46.555Z,100254.59
2023-04-23T07:51:12.930Z,100248.41
2023-04-23T07:53:39.374Z,100244.28
2023-04-23T07:56:05.983Z,100253.19
2023-04-23T07:58:33.235Z,100248.34
2023-04-23T08:00:59.668Z,100254.41
2023-04-23T08:03:26.564Z,100241.44
2023-04-23T08:05:53.128Z,100244.81
2023-04-23T08:08:19.551Z,100249.31
2023-04-23T08:10:46.455Z,100255.09
2023-04-23T08:13:12.883Z,100247.56
2023-04-23T08:15:39.375Z,100244.47
2023-04-23T08:18:06.272Z,100246.53
2023-04-23T08:20:32.791Z,100240.81
2023-04-23T08:22:59.429Z,100233.56
2023-04-23T08:25:26.051Z,100233.78
2023-04-23T08:27:52.764Z,100225.06
2023-04-23T08:30:19.407Z,100230.88
2023-04-23T08:32:49.949Z,100228.47
2023-04-23T08:35:16.540Z,100231.66
2023-04-23T08:37:42.956Z,100223.25
2023-04-23T08:40:09.991Z,100218.50
2023-04-23T08:42:38.492Z,100209.88
2023-04-23T08:45:05.985Z,100224.56
2023-04-23T08:47:32.693Z,100221.88
2023-04-23T08:49:59.577Z,100210.31
2023-04-23T08:52:29.363Z,100209.53
2023-04-23T08:55:01.079Z,100206.78
2023-04-23T08:57:27.966Z,100210.00
2023-04-23T08:59:55.428Z,100209.66
2023-04-23T09:02:23.182Z,100203.41
2023-04-23T09:04:51.861Z,100207.75
2023-04-23T09:07:19.324Z,100208.84
2023-04-23T09:09:46.263Z,100205.97
2023-04-23T09:12:12.764Z,100200.13
2023-04-23T09:14:39.327Z,100216.41
2023-04-23T09:17:06.220Z,100202.59
2023-04-23T09:19:32.718Z,100200.34
2023-04-23T09:22:01.955Z,100198.84
2023-04-23T09:24:28.418Z,100196.50
2023-04-23T09:26:55.112Z,100181.13
2023-04-23T09:29:23.843Z,100182.09
2023-04-23T09:31:52.580Z,100178.31
2023-04-23T09:34:20.593Z,100178.81
2023-04-23T09:36:50.561Z,100174.06
2023-04-23T09:39:23.175Z,100171.75
2023-04-23T09:41:52.838Z,100173.25
2023-04-23T09:44:22.913Z,100180.97
2023-04-23T09:46:49.944Z,100181.09
2023-04-23T09:49:16.571Z,100183.41
2023-04-23T09:51:48.552Z,100176.69
2023-04-23T09:54:23.680Z,100165.81
2023-04-23T09:56:53.788Z,100167.78
2023-04-23T09:59:32.054Z,100162.44
2023-04-23T10:02:07.749Z,100163.81
2023-04-23T10:04:35.479Z,100161.19
2023-04-23T10:07:17.931Z,100156.88
2023-04-23T10:09:47.173Z,100148.63
2023-04-23T10:14:46.916Z,100140.72
2023-04-23T10:17:13.856Z,100151.06
2023-04-23T10:19:43.374Z,100143.38
2023-04-23T10:24:47.176Z,100151.66
2023-04-23T10:27:28.420Z,100157.94
2023-04-23T10:29:57.395Z,100148.66
2023-04-23T10:32:24.330Z,100134.00
2023-04-23T10:34:52.046Z,100135.34
2023-04-23T10:37:21.934Z,100139.34
2023-04-23T10:39:53.815Z,100149.41
2023-04-23T10:42:21.675Z,100146.31
2023-04-23T10:47:23.233Z,100138.75
2023-04-23T10:49:49.794Z,100130.63
2023-04-23T10:52:21.716Z,100124.44
2023-04-23T10:54:57.883Z,100126.84
2023-04-23T10:57:24.382Z,100125.09
2023-04-23T10:59:55.930Z,100119.84
2023-04-23T11:02:26.150Z,100121.59
2023-04-23T11:04:57.707Z,100131.34
2023-04-23T11:07:32.456Z,100122.88
2023-04-23T11:10:01.029Z,100117.81
2023-04-23T11:12:29.730Z,100129.97
2023-04-23T11:14:57.059Z,100128.34
2023-04-23T11:17:24.624Z,100123.72
2023-04-23T11:20:14.840Z,100123.38
2023-04-23T11:22:46.095Z,100124.66
2023-04-23T11:25:14.970Z,100127.44
2023-04-23T11:27:43.337Z,100126.28
2023-04-23T11:30:18.163Z,100120.56
2023-04-23T11:32:48.978Z,100114.13
2023-04-23T11:35:18.823Z,100112.34
2023-04-23T11:37:48.160Z,100116.41
2023-04-23T11:40:19.131Z,100116.75
2023-04-23T11:42:54.581Z,100122.41
2023-04-23T11:45:23.438Z,100107.34
2023-04-23T11:47:58.224Z,100102.53
2023-04-23T11:50:30.471Z,100100.81
2023-04-23T11:52:57.326Z,100101.03
2023-04-23T11:55:24.289Z,100095.28
2023-04-23T11:57:52.537Z,100104.22
2023-04-23T12:00:22.267Z,100101.28
2023-04-23T12:03:00.318Z,100094.28
2023-04-23T12:05:36.741Z,100093.72
2023-04-23T12:08:21.988Z,100096.56
2023-04-23T12:10:53.587Z,100097.50
2023-04-23T12:13:26.132Z,100123.94
2023-04-23T12:15:58.328Z,100125.41
2023-04-23T12:18:33.319Z,100122.19
2023-04-23T12:21:11.056Z,100112.53
2023-04-23T12:23:39.368Z,100102.91
2023-04-23T12:26:11.728Z,100094.94
2023-04-23T12:28:51.235Z,100086.25
2023-04-23T12:31:23.122Z,100077.97
2023-04-23T12:34:07.084Z,100076.16
2023-04-23T12:36:35.218Z,100070.72
2023-04-23T12:39:32.241Z,100075.72
2023-04-23T12:42:06.458Z,100077.66
2023-04-23T12:44:35.298Z,100068.78
2023-04-23T12:47:04.778Z,100057.81
2023-04-23T12:49:32.932Z,100061.22
2023-04-23T12:52:02.169Z,100054.53
2023-04-23T12:54:31.137Z,100053.16
2023-04-23T12:56:59.438Z,100054.22
2023-04-23T12:59:26.370Z,100062.81
2023-04-23T13:01:53.273Z,100052.09
2023-04-23T13:04:19.889Z,100056.69
2023-04-23T13:06:46.531Z,100052.78
2023-04-23T13:09:13.273Z,100052.56
2023-04-23T13:11:40.866Z,100044.03
2023-04-23T13:14:07.901Z,100046.84
2023-04-23T13:16:35.313Z,100066.50
2023-04-23T13:19:02.255Z,100086.16
2023-04-23T13:21:28.708Z,100109.09
2023-04-23T13:23:56.925Z,100122.28
2023-04-23T13:26:23.803Z,100085.69
2023-04-23T13:28:50.505Z,100062.88
2023-04-23T13:31:16.914Z,100050.81
2023-04-23T13:33:43.391Z,100047.69
2023-04-23T13:36:10.939Z,100043.97
2023-04-23T13:38:37.515Z,100028.91
2023-04-23T13:41:04.453Z,100031.47
2023-04-23T13:43:30.882Z,100039.84
2023-04-23T13:45:57.481Z,100038.91
2023-04-23T13:48:28.594Z,100037.31
2023-04-23T13:50:55.814Z,100037.47
2023-04-23T13:53:23.090Z,100038.72
2023-04-23T13:55:49.847Z,100028.03
2023-04-23T13:58:16.494Z,100030.50
2023-04-23T14:00:43.795Z,100026.69
2023-04-23T14:03:11.046Z,100016.75
2023-04-23T14:05:38.291Z,100016.63
2023-04-23T14:08:05.076Z,100012.59
2023-04-23T14:10:31.515Z,100000.81
2023-04-23T14:12:57.927Z,100002.97
2023-04-23T14:15:24.538Z,99999.63
2023-04-23T14:17:51.004Z,100002.94
2023-04-23T14:20:19.915Z,100002.22
2023-04-23T14:22:51.326Z,99998.28
2023-04-23T14:25:29.045Z,99989.19
2023-04-23T14:27:56.986Z,99989.44
2023-04-23T14:30:26.223Z,99981.94
2023-04-23T14:32:54.890Z,99979.41
2023-04-23T14:35:35.640Z,99971.66
2023-04-23T14:38:08.222Z,99971.78
2023-04-23T14:40:34.800Z,99965.72
2023-04-23T14:43:14.494Z,99960.47
2023-04-23T14:45:41.810Z,99958.63
2023-04-23T14:48:08.283Z,99963.22
2023-04-23T14:50:34.745Z,99958.91
2023-04-23T14:53:04.076Z,99952.34
2023-04-23T14:55:30.810Z,99948.31
2023-04-23T14:57:57.328Z,99953.03
2023-04-23T15:00:23.760Z,99954.50
2023-04-23T15:02:50.669Z,99955.34
2023-04-23T15:05:17.175Z,99949.72
2023-04-23T15:07:43.660Z,99946.66
2023-04-23T15:10:11.557Z,99935.97
2023-04-23T15:12:41.051Z,99931.25
2023-04-23T15:15:48.342Z,99934.56
2023-04-23T15:18:15.705Z,99936.53
2023-04-23T15:20:43.829Z,99926.59
2023-04-23T15:23:10.966Z,99923.03
2023-04-23T15:25:39.091Z,99923.88
2023-04-23T15:28:06.991Z,99918.97
2023-04-23T15:30:33.397Z,99917.41
2023-04-23T15:33:00.062Z,99908.81
2023-04-23T15:35:28.537Z,99909.59
2023-04-23T15:37:55.028Z,99910.13
2023-04-23T15:40:21.574Z,99902.66
2023-04-23T15:42:49.819Z,99893.38
2023-04-23T15:45:16.877Z,99898.19
2023-04-23T15:47:43.378Z,99902.19
2023-04-23T15:50:10.663Z,99896.53
2023-04-23T15:52:37.514Z,99895.34
2023-04-23T15:55:04.784Z,99897.84
2023-04-23T15:57:31.758Z,99893.34
2023-04-23T15:59:58.267Z,99890.09
2023-04-23T16:02:24.760Z,99878.41
2023-04-23T16:04:51.469Z,99878.41
2023-04-23T16:07:18.247Z,99871.56
2023-04-23T16:09:44.707Z,99862.88
2023-04-23T16:12:11.394Z,99867.22
2023-04-23T16:14:38.010Z,99863.56
2023-04-23T16:17:04.502Z,99859.66
2023-04-23T16:19:31.115Z,99855.66
2023-04-23T16:21:57.636Z,99854.59
2023-04-23T16:24:24.532Z,99855.56
2023-04-23T16:26:51.040Z,99851.63
2023-04-23T16:29:22.830Z,99847.78
2023-04-23T16:31:50.105Z,99848.53
2023-04-23T16:34:16.935Z,99849.75
2023-04-23T16:36:43.438Z,99840.72
2023-04-23T16:39:10.993Z,99841.06
2023-04-23T16:41:37.408Z,99843.91
2023-04-23T16:44:03.866Z,99833.16
2023-04-23T16:46:31.672Z,99831.28
2023-04-23T16:48:58.505Z,99827.44
2023-04-23T16:51:25.187Z,99821.72
2023-04-23T16:53:51.589Z,99828.91
2023-04-23T16:56:18.402Z,99822.28
2023-04-23T16:58:44.790Z,99829.69
2023-04-23T17:01:11.269Z,99824.41
2023-04-23T17:03:39.067Z,99814.31
2023-04-23T17:06:29.460Z,99817.13
2023-04-23T17:09:00.359Z,99816.91
2023-04-23T17:11:29.730Z,99810.91
2023-04-23T17:13:57.261Z,99813.88
2023-04-23T17:16:27.582Z,99812.06
2023-04-23T17:18:55.476Z,99804.94
2023-04-23T17:21:22.662Z,99798.69
2023-04-23T17:23:49.196Z,99798.16
2023-04-23T17:26:15.650Z,99787.28
2023-04-23T17:28:42.231Z,99799.91
2023-04-23T17:31:09.001Z,99796.63
2023-04-23T17:33:35.890Z,99791.13
2023-04-23T17:36:02.526Z,99786.59
2023-04-23T17:38:29.574Z,99784.19
2023-04-23T17:40:56.255Z,99782.78
2023-04-23T17:43:22.732Z,99778.31
2023-04-23T17:45:49.164Z,99785.72
2023-04-23T17:48:15.881Z,99780.31
2023-04-23T17:50:43.590Z,99790.31
2023-04-23T17:53:10.497Z,99780.38
2023-04-23T17:55:36.909Z,99777.94
2023-04-23T17:58:06.407Z,99772.81
2023-04-23T18:00:37.425Z,99769.44
2023-04-23T18:03:04.407Z,99771.72
2023-04-23T18:05:31.227Z,99760.38
2023-04-23T18:07:58.960Z,99760.03
2023-04-23T18:10:25.722Z,99761.22
2023-04-23T18:12:52.381Z,99754.56
2023-04-23T18:15:18.893Z,99749.59
2023-04-23T18:17:45.886Z,99754.31
2023-04-23T18:20:13.358Z,99742.66
2023-04-23T18:22:41.464Z,99750.22
2023-04-23T18:25:12.716Z,99747.06
2023-04-23T18:27:39.404Z,99739.84
2023-04-23T18:30:08.093Z,99738.88
2023-04-23T18:32:46.990Z,99733.41
2023-04-23T18:35:13.858Z,99729.47
2023-04-23T18:37:48.766Z,99726.00
2023-04-23T18:40:15.225Z,99727.66
2023-04-23T18:42:41.668Z,99724.91
2023-04-23T18:45:08.577Z,99730.44
2023-04-23T18:47:49.862Z,99732.84
2023-04-23T18:50:38.406Z,99717.88
2023-04-23T18:53:05.088Z,99723.13
2023-04-23T18:55:31.662Z,99728.13
2023-04-23T18:57:58.687Z,99727.75
2023-04-23T19:00:25.714Z,99721.78
2023-04-23T19:02:52.426Z,99726.97
2023-04-23T19:05:19.034Z,99716.50
2023-04-23T19:07:45.747Z,99717.63
2023-04-23T19:10:12.924Z,99714.84
2023-04-23T19:12:39.328Z,99714.44
2023-04-23T19:15:06.505Z,99720.22
2023-04-23T19:17:33.022Z,99730.50
2023-04-23T19:19:59.789Z,99727.16
2023-04-23T19:22:26.383Z,99735.34
2023-04-23T19:24:53.107Z,99741.94
2023-04-23T19:27:19.975Z,99747.13
2023-04-23T19:29:48.299Z,99743.16
2023-04-23T19:32:14.747Z,99754.41
2023-04-23T19:34:41.274Z,99760.53
2023-04-23T19:37:07.701Z,99755.38
2023-04-23T19:39:34.206Z,99756.34
2023-04-23T19:42:02.480Z,99756.19
2023-04-23T19:44:28.978Z,99762.97
2023-04-23T19:46:56.530Z,99754.28
2023-04-23T19:49:23.155Z,99733.88
2023-04-23T19:51:53.390Z,99720.19
2023-04-23T19:54:19.928Z,99714.56
2023-04-23T19:56:46.673Z,99720.69
2023-04-23T19:59:20.770Z,99709.13
2023-04-23T20:01:47.870Z,99704.94
2023-04-23T20:04:14.553Z,99702.22
2023-04-23T20:06:41.524Z,99693.69
2023-04-23T20:09:08.254Z,99688.22
2023-04-23T20:11:35.401Z,99695.44
2023-04-23T20:14:02.222Z,99686.94
2023-04-23T20:16:28.895Z,99683.88
2023-04-23T20:18:58.350Z,99675.22
2023-04-23T20:21:24.903Z,99674.56
2023-04-23T20:23:51.390Z,99668.94
2023-04-23T20:26:18.996Z,99668.94
2023-04-23T20:28:47.486Z,99661.22
2023-04-23T20:31:14.764Z,99660.75
2023-04-23T20:33:41.251Z,99654.81
2023-04-23T20:36:11.520Z,99655.78
2023-04-23T20:38:38.898Z,99647.28
2023-04-23T20:41:05.971Z,99659.81
2023-04-23T20:43:34.325Z,99655.16
2023-04-23T20:46:00.892Z,99649.22
2023-04-23T20:48:30.577Z,99633.63
2023-04-23T20:50:57.678Z,99636.19
2023-04-23T20:53:24.583Z,99631.84
2023-04-23T20:55:51.195Z,99647.44
2023-04-23T20:58:17.813Z,99686.63
2023-04-23T21:00:44.513Z,99677.94
2023-04-23T21:03:11.718Z,99687.38
2023-04-23T21:05:40.292Z,99687.16
2023-04-23T21:08:07.484Z,99681.78
2023-04-23T21:10:33.925Z,99683.97
2023-04-23T21:13:00.466Z,99674.66
2023-04-23T21:15:29.624Z,99678.59
2023-04-23T21:17:56.078Z,99673.09
2023-04-23T21:20:22.846Z,99669.97
2023-04-23T21:22:49.251Z,99658.44
2023-04-23T21:25:15.852Z,99656.88
2023-04-23T21:27:46.609Z,99663.44
2023-04-23T21:30:56.544Z,99645.75
2023-04-23T21:33:25.158Z,99638.88
2023-04-23T21:35:53.626Z,99631.31
2023-04-23T21:38:21.241Z,99628.44
2023-04-23T21:40:47.930Z,99627.19
2023-04-23T21:43:14.816Z,99617.56
2023-04-23T21:45:41.325Z,99609.38
2023-04-23T21:48:07.969Z,99605.53
2023-04-23T21:50:34.728Z,99607.13
2023-04-23T21:53:03.875Z,99596.72
2023-04-23T21:55:34.006Z,99602.97
2023-04-23T21:58:13.763Z,99607.31
2023-04-23T22:00:44.498Z,99602.81
2023-04-23T22:03:13.403Z,99602.00
2023-04-23T22:05:49.230Z,99593.81
2023-04-23T22:08:16.497Z,99599.44
2023-04-23T22:10:43.237Z,99588.03
2023-04-23T22:13:15.011Z,99585.97
2023-04-23T22:15:42.163Z,99593.94
2023-04-23T22:18:08.910Z,99589.00
2023-04-23T22:20:37.463Z,99592.66
2023-04-23T22:23:03.910Z,99594.84
2023-04-23T22:25:30.343Z,99583.78
2023-04-23T22:27:56.798Z,99583.31
2023-04-23T22:30:23.443Z,99580.75
2023-04-23T22:32:50.179Z,99588.28
2023-04-23T22:35:16.869Z,99582.03
2023-04-23T22:37:43.314Z,99576.38
2023-04-23T22:40:10.320Z,99575.91
2023-04-23T22:42:37.338Z,99571.75
2023-04-23T22:45:03.953Z,99573.19
2023-04-23T22:47:30.659Z,99580.88
2023-04-23T22:49:57.105Z,99568.84
2023-04-23T22:52:23.607Z,99563.41
2023-04-23T22:54:50.241Z,99567.59
2023-04-23T22:57:16.652Z,99569.78
2023-04-23T22:59:43.561Z,99573.31
2023-04-23T23:02:10.176Z,99566.75
2023-04-23T23:04:38.845Z,99568.53
2023-04-23T23:07:06.357Z,99568.53
2023-04-23T23:09:32.890Z,99573.03
2023-04-23T23:12:03.534Z,99576.53
2023-04-23T23:14:31.719Z,99577.84
2023-04-23T23:16:58.249Z,99580.41
2023-04-23T23:19:26.959Z,99578.97
2023-04-23T23:21:53.767Z,99578.03
2023-04-23T23:24:20.525Z,99578.66
2023-04-23T23:26:46.929Z,99575.13
2023-04-23T23:29:13.577Z,99578.97
2023-04-23T23:31:40.306Z,99585.38
2023-04-23T23:34:06.805Z,99585.06
2023-04-23T23:36:34.054Z,99586.81
2023-04-23T23:39:01.042Z,99584.78
2023-04-23T23:41:27.657Z,99587.47
2023-04-23T23:43:54.851Z,99580.28
2023-04-23T23:46:21.600Z,99576.59
2023-04-23T23:48:48.278Z,99579.03
2023-04-23T23:51:14.777Z,99572.13
2023-04-23T23:53:41.207Z,99574.66
2023-04-23T23:56:07.553Z,99574.31
2023-04-23T23:58:33.953Z,99566.75
